sensor_id;sensor_type;location;lat;lon;timestamp;P1;durP1;ratioP1;P2;durP2;ratioP2
53903;SDS011;39812;52.430;16.936;2023-11-22T00:00:31;8.80;;;4.38;;
53903;SDS011;39812;52.430;16.936;2023-11-22T00:02:57;8.18;;;3.90;;
53903;SDS011;39812;52.430;16.936;2023-11-22T00:05:23;8.52;;;4.47;;
53903;SDS011;39812;52.430;16.936;2023-11-22T00:07:49;11.25;;;4.78;;
53903;SDS011;39812;52.430;16.936;2023-11-22T00:10:16;6.93;;;3.75;;
53903;SDS011;39812;52.430;16.936;2023-11-22T00:12:42;7.35;;;4.97;;
53903;SDS011;39812;52.430;16.936;2023-11-22T00:15:08;6.97;;;3.88;;
53903;SDS011;39812;52.430;16.936;2023-11-22T00:17:35;9.55;;;3.75;;
53903;SDS011;39812;52.430;16.936;2023-11-22T00:20:01;7.20;;;3.72;;
53903;SDS011;39812;52.430;16.936;2023-11-22T00:22:30;7.32;;;4.43;;
53903;SDS011;39812;52.430;16.936;2023-11-22T00:24:57;8.07;;;4.10;;
53903;SDS011;39812;52.430;16.936;2023-11-22T00:27:23;6.40;;;3.47;;
53903;SDS011;39812;52.430;16.936;2023-11-22T00:29:49;6.60;;;4.22;;
53903;SDS011;39812;52.430;16.936;2023-11-22T00:32:15;8.07;;;3.42;;
53903;SDS011;39812;52.430;16.936;2023-11-22T00:34:41;10.75;;;3.97;;
53903;SDS011;39812;52.430;16.936;2023-11-22T00:37:07;8.57;;;4.32;;
53903;SDS011;39812;52.430;16.936;2023-11-22T00:39:33;10.68;;;4.50;;
53903;SDS011;39812;52.430;16.936;2023-11-22T00:41:58;8.02;;;4.95;;
53903;SDS011;39812;52.430;16.936;2023-11-22T00:44:24;9.25;;;2.78;;
53903;SDS011;39812;52.430;16.936;2023-11-22T00:46:50;7.95;;;3.97;;
53903;SDS011;39812;52.430;16.936;2023-11-22T00:49:16;6.07;;;3.53;;
53903;SDS011;39812;52.430;16.936;2023-11-22T00:51:42;7.88;;;3.17;;
53903;SDS011;39812;52.430;16.936;2023-11-22T00:54:08;9.75;;;4.30;;
53903;SDS011;39812;52.430;16.936;2023-11-22T00:56:34;10.25;;;4.50;;
53903;SDS011;39812;52.430;16.936;2023-11-22T00:59:01;5.28;;;3.35;;
53903;SDS011;39812;52.430;16.936;2023-11-22T01:01:28;6.10;;;3.60;;
53903;SDS011;39812;52.430;16.936;2023-11-22T01:03:54;7.57;;;4.03;;
53903;SDS011;39812;52.430;16.936;2023-11-22T01:06:20;9.45;;;5.00;;
53903;SDS011;39812;52.430;16.936;2023-11-22T01:08:48;8.18;;;3.58;;
53903;SDS011;39812;52.430;16.936;2023-11-22T01:11:14;7.57;;;3.72;;
53903;SDS011;39812;52.430;16.936;2023-11-22T01:13:39;7.80;;;3.97;;
53903;SDS011;39812;52.430;16.936;2023-11-22T01:16:07;8.57;;;5.00;;
53903;SDS011;39812;52.430;16.936;2023-11-22T01:18:33;7.68;;;4.18;;
53903;SDS011;39812;52.430;16.936;2023-11-22T01:20:59;11.63;;;4.68;;
53903;SDS011;39812;52.430;16.936;2023-11-22T01:23:25;10.48;;;5.93;;
53903;SDS011;39812;52.430;16.936;2023-11-22T01:25:52;7.45;;;3.53;;
53903;SDS011;39812;52.430;16.936;2023-11-22T01:28:18;5.10;;;3.50;;
53903;SDS011;39812;52.430;16.936;2023-11-22T01:30:44;6.57;;;3.80;;
53903;SDS011;39812;52.430;16.936;2023-11-22T01:33:10;10.55;;;4.97;;
53903;SDS011;39812;52.430;16.936;2023-11-22T01:35:36;11.32;;;4.57;;
53903;SDS011;39812;52.430;16.936;2023-11-22T01:38:03;11.93;;;5.10;;
53903;SDS011;39812;52.430;16.936;2023-11-22T01:40:32;8.23;;;4.10;;
53903;SDS011;39812;52.430;16.936;2023-11-22T01:42:59;6.45;;;4.13;;
53903;SDS011;39812;52.430;16.936;2023-11-22T01:45:25;6.80;;;4.13;;
53903;SDS011;39812;52.430;16.936;2023-11-22T01:47:51;10.38;;;4.95;;
53903;SDS011;39812;52.430;16.936;2023-11-22T01:50:17;7.25;;;4.00;;
53903;SDS011;39812;52.430;16.936;2023-11-22T01:52:43;9.45;;;5.03;;
53903;SDS011;39812;52.430;16.936;2023-11-22T01:55:10;6.00;;;3.92;;
53903;SDS011;39812;52.430;16.936;2023-11-22T01:57:37;10.77;;;3.92;;
53903;SDS011;39812;52.430;16.936;2023-11-22T02:00:03;11.65;;;5.25;;
53903;SDS011;39812;52.430;16.936;2023-11-22T02:02:32;13.02;;;5.72;;
53903;SDS011;39812;52.430;16.936;2023-11-22T02:04:59;12.20;;;4.85;;
53903;SDS011;39812;52.430;16.936;2023-11-22T02:07:26;8.25;;;4.43;;
53903;SDS011;39812;52.430;16.936;2023-11-22T02:09:52;9.57;;;3.50;;
53903;SDS011;39812;52.430;16.936;2023-11-22T02:12:18;10.40;;;5.32;;
53903;SDS011;39812;52.430;16.936;2023-11-22T02:14:44;9.27;;;5.15;;
53903;SDS011;39812;52.430;16.936;2023-11-22T02:17:10;6.63;;;3.42;;
53903;SDS011;39812;52.430;16.936;2023-11-22T02:19:36;8.85;;;4.07;;
53903;SDS011;39812;52.430;16.936;2023-11-22T02:22:03;9.20;;;3.90;;
53903;SDS011;39812;52.430;16.936;2023-11-22T02:24:28;7.38;;;4.25;;
53903;SDS011;39812;52.430;16.936;2023-11-22T02:26:54;7.10;;;3.47;;
53903;SDS011;39812;52.430;16.936;2023-11-22T02:29:20;7.68;;;3.75;;
53903;SDS011;39812;52.430;16.936;2023-11-22T02:31:46;8.18;;;3.85;;
53903;SDS011;39812;52.430;16.936;2023-11-22T02:34:12;9.93;;;5.03;;
53903;SDS011;39812;52.430;16.936;2023-11-22T02:36:41;10.55;;;4.53;;
53903;SDS011;39812;52.430;16.936;2023-11-22T02:39:08;11.68;;;5.82;;
53903;SDS011;39812;52.430;16.936;2023-11-22T02:41:34;10.48;;;5.40;;
53903;SDS011;39812;52.430;16.936;2023-11-22T02:44:00;7.32;;;4.47;;
53903;SDS011;39812;52.430;16.936;2023-11-22T02:46:27;9.38;;;4.28;;
53903;SDS011;39812;52.430;16.936;2023-11-22T02:48:54;7.10;;;3.60;;
53903;SDS011;39812;52.430;16.936;2023-11-22T02:51:19;10.77;;;5.38;;
53903;SDS011;39812;52.430;16.936;2023-11-22T02:53:47;9.27;;;3.83;;
53903;SDS011;39812;52.430;16.936;2023-11-22T02:56:13;5.72;;;3.70;;
53903;SDS011;39812;52.430;16.936;2023-11-22T02:58:40;8.75;;;4.32;;
53903;SDS011;39812;52.430;16.936;2023-11-22T03:01:06;7.00;;;4.18;;
53903;SDS011;39812;52.430;16.936;2023-11-22T03:03:35;5.72;;;4.22;;
53903;SDS011;39812;52.430;16.936;2023-11-22T03:06:01;6.97;;;4.60;;
53903;SDS011;39812;52.430;16.936;2023-11-22T03:08:26;16.15;;;5.85;;
53903;SDS011;39812;52.430;16.936;2023-11-22T03:10:53;8.15;;;4.45;;
53903;SDS011;39812;52.430;16.936;2023-11-22T03:13:19;6.55;;;4.30;;
53903;SDS011;39812;52.430;16.936;2023-11-22T03:15:45;5.32;;;4.18;;
53903;SDS011;39812;52.430;16.936;2023-11-22T03:18:10;4.65;;;3.13;;
53903;SDS011;39812;52.430;16.936;2023-11-22T03:20:36;6.72;;;5.45;;
53903;SDS011;39812;52.430;16.936;2023-11-22T03:23:02;6.68;;;5.03;;
53903;SDS011;39812;52.430;16.936;2023-11-22T03:25:28;7.03;;;3.92;;
53903;SDS011;39812;52.430;16.936;2023-11-22T03:27:54;7.40;;;4.32;;
53903;SDS011;39812;52.430;16.936;2023-11-22T03:30:20;12.43;;;5.05;;
53903;SDS011;39812;52.430;16.936;2023-11-22T03:32:46;7.07;;;4.15;;
53903;SDS011;39812;52.430;16.936;2023-11-22T03:35:12;5.35;;;3.97;;
53903;SDS011;39812;52.430;16.936;2023-11-22T03:37:38;6.78;;;4.25;;
53903;SDS011;39812;52.430;16.936;2023-11-22T03:40:05;13.32;;;4.82;;
53903;SDS011;39812;52.430;16.936;2023-11-22T03:42:31;10.88;;;4.40;;
53903;SDS011;39812;52.430;16.936;2023-11-22T03:44:57;12.40;;;5.18;;
53903;SDS011;39812;52.430;16.936;2023-11-22T03:47:24;9.70;;;4.90;;
53903;SDS011;39812;52.430;16.936;2023-11-22T03:49:50;8.15;;;5.95;;
53903;SDS011;39812;52.430;16.936;2023-11-22T03:52:15;10.27;;;6.35;;
53903;SDS011;39812;52.430;16.936;2023-11-22T03:54:41;6.93;;;3.75;;
53903;SDS011;39812;52.430;16.936;2023-11-22T03:57:07;11.90;;;4.78;;
53903;SDS011;39812;52.430;16.936;2023-11-22T03:59:34;8.20;;;4.22;;
53903;SDS011;39812;52.430;16.936;2023-11-22T04:01:59;8.20;;;4.93;;
53903;SDS011;39812;52.430;16.936;2023-11-22T04:04:25;7.68;;;4.47;;
53903;SDS011;39812;52.430;16.936;2023-11-22T04:06:51;10.48;;;4.93;;
53903;SDS011;39812;52.430;16.936;2023-11-22T04:09:18;9.18;;;5.47;;
53903;SDS011;39812;52.430;16.936;2023-11-22T04:11:45;11.90;;;5.55;;
53903;SDS011;39812;52.430;16.936;2023-11-22T04:14:11;9.02;;;4.22;;
53903;SDS011;39812;52.430;16.936;2023-11-22T04:16:37;6.85;;;4.25;;
53903;SDS011;39812;52.430;16.936;2023-11-22T04:19:03;6.65;;;4.57;;
53903;SDS011;39812;52.430;16.936;2023-11-22T04:21:29;9.90;;;5.20;;
53903;SDS011;39812;52.430;16.936;2023-11-22T04:23:55;9.48;;;5.07;;
53903;SDS011;39812;52.430;16.936;2023-11-22T04:26:21;9.82;;;4.93;;
53903;SDS011;39812;52.430;16.936;2023-11-22T04:28:47;12.63;;;5.18;;
53903;SDS011;39812;52.430;16.936;2023-11-22T04:31:12;10.18;;;5.45;;
53903;SDS011;39812;52.430;16.936;2023-11-22T04:33:40;8.70;;;5.45;;
53903;SDS011;39812;52.430;16.936;2023-11-22T04:36:06;6.90;;;4.60;;
53903;SDS011;39812;52.430;16.936;2023-11-22T04:38:32;8.30;;;5.68;;
53903;SDS011;39812;52.430;16.936;2023-11-22T04:40:59;10.73;;;4.78;;
53903;SDS011;39812;52.430;16.936;2023-11-22T04:43:25;12.27;;;4.95;;
53903;SDS011;39812;52.430;16.936;2023-11-22T04:45:51;8.57;;;4.65;;
53903;SDS011;39812;52.430;16.936;2023-11-22T04:48:17;8.00;;;4.80;;
53903;SDS011;39812;52.430;16.936;2023-11-22T04:50:43;6.03;;;3.60;;
53903;SDS011;39812;52.430;16.936;2023-11-22T04:53:12;6.70;;;3.95;;
53903;SDS011;39812;52.430;16.936;2023-11-22T04:55:37;19.10;;;5.65;;
53903;SDS011;39812;52.430;16.936;2023-11-22T04:58:03;10.63;;;4.75;;
53903;SDS011;39812;52.430;16.936;2023-11-22T05:00:29;9.23;;;5.05;;
53903;SDS011;39812;52.430;16.936;2023-11-22T05:02:55;13.13;;;6.05;;
53903;SDS011;39812;52.430;16.936;2023-11-22T05:05:21;11.20;;;6.90;;
53903;SDS011;39812;52.430;16.936;2023-11-22T05:07:47;15.15;;;4.85;;
53903;SDS011;39812;52.430;16.936;2023-11-22T05:10:13;9.07;;;5.60;;
53903;SDS011;39812;52.430;16.936;2023-11-22T05:12:39;8.35;;;5.55;;
53903;SDS011;39812;52.430;16.936;2023-11-22T05:15:05;9.40;;;5.13;;
53903;SDS011;39812;52.430;16.936;2023-11-22T05:17:32;13.10;;;5.05;;
53903;SDS011;39812;52.430;16.936;2023-11-22T05:19:58;13.75;;;6.07;;
53903;SDS011;39812;52.430;16.936;2023-11-22T05:22:24;9.07;;;5.78;;
53903;SDS011;39812;52.430;16.936;2023-11-22T05:24:50;12.38;;;6.45;;
53903;SDS011;39812;52.430;16.936;2023-11-22T05:27:15;7.30;;;3.83;;
53903;SDS011;39812;52.430;16.936;2023-11-22T05:29:41;10.05;;;5.75;;
53903;SDS011;39812;52.430;16.936;2023-11-22T05:32:07;11.55;;;5.45;;
53903;SDS011;39812;52.430;16.936;2023-11-22T05:34:33;7.43;;;4.63;;
53903;SDS011;39812;52.430;16.936;2023-11-22T05:36:59;6.70;;;4.05;;
53903;SDS011;39812;52.430;16.936;2023-11-22T05:39:25;12.10;;;5.82;;
53903;SDS011;39812;52.430;16.936;2023-11-22T05:41:52;14.68;;;6.55;;
53903;SDS011;39812;52.430;16.936;2023-11-22T05:44:18;12.57;;;6.15;;
53903;SDS011;39812;52.430;16.936;2023-11-22T05:46:44;12.20;;;7.13;;
53903;SDS011;39812;52.430;16.936;2023-11-22T05:49:10;10.00;;;5.00;;
53903;SDS011;39812;52.430;16.936;2023-11-22T05:51:35;12.98;;;5.47;;
53903;SDS011;39812;52.430;16.936;2023-11-22T05:54:02;10.05;;;6.13;;
53903;SDS011;39812;52.430;16.936;2023-11-22T05:56:28;12.27;;;6.10;;
53903;SDS011;39812;52.430;16.936;2023-11-22T05:58:54;10.05;;;5.40;;
53903;SDS011;39812;52.430;16.936;2023-11-22T06:01:20;10.13;;;5.07;;
53903;SDS011;39812;52.430;16.936;2023-11-22T06:03:46;10.25;;;5.50;;
53903;SDS011;39812;52.430;16.936;2023-11-22T06:06:13;9.38;;;5.78;;
53903;SDS011;39812;52.430;16.936;2023-11-22T06:08:39;10.52;;;5.43;;
53903;SDS011;39812;52.430;16.936;2023-11-22T06:11:05;13.40;;;7.45;;
53903;SDS011;39812;52.430;16.936;2023-11-22T06:13:32;10.23;;;5.93;;
53903;SDS011;39812;52.430;16.936;2023-11-22T06:15:58;10.07;;;5.65;;
53903;SDS011;39812;52.430;16.936;2023-11-22T06:18:24;15.88;;;6.22;;
53903;SDS011;39812;52.430;16.936;2023-11-22T06:20:55;10.30;;;7.65;;
53903;SDS011;39812;52.430;16.936;2023-11-22T06:23:21;9.07;;;4.78;;
53903;SDS011;39812;52.430;16.936;2023-11-22T06:25:47;10.50;;;5.63;;
53903;SDS011;39812;52.430;16.936;2023-11-22T06:28:13;13.25;;;6.38;;
53903;SDS011;39812;52.430;16.936;2023-11-22T06:30:39;14.32;;;7.32;;
53903;SDS011;39812;52.430;16.936;2023-11-22T06:33:04;11.48;;;6.47;;
53903;SDS011;39812;52.430;16.936;2023-11-22T06:35:30;15.00;;;6.47;;
53903;SDS011;39812;52.430;16.936;2023-11-22T06:37:56;14.43;;;6.95;;
53903;SDS011;39812;52.430;16.936;2023-11-22T06:40:22;13.60;;;6.25;;
53903;SDS011;39812;52.430;16.936;2023-11-22T06:42:48;17.55;;;7.25;;
53903;SDS011;39812;52.430;16.936;2023-11-22T06:45:13;12.40;;;4.97;;
53903;SDS011;39812;52.430;16.936;2023-11-22T06:47:40;16.15;;;7.10;;
53903;SDS011;39812;52.430;16.936;2023-11-22T06:50:06;12.95;;;7.05;;
53903;SDS011;39812;52.430;16.936;2023-11-22T06:52:40;14.02;;;7.50;;
53903;SDS011;39812;52.430;16.936;2023-11-22T06:55:07;11.52;;;6.45;;
53903;SDS011;39812;52.430;16.936;2023-11-22T06:57:34;12.10;;;6.63;;
53903;SDS011;39812;52.430;16.936;2023-11-22T07:00:00;12.52;;;6.13;;
53903;SDS011;39812;52.430;16.936;2023-11-22T07:02:30;13.30;;;6.43;;
53903;SDS011;39812;52.430;16.936;2023-11-22T07:04:56;14.40;;;7.03;;
53903;SDS011;39812;52.430;16.936;2023-11-22T07:07:24;18.17;;;8.15;;
53903;SDS011;39812;52.430;16.936;2023-11-22T07:09:50;15.43;;;8.15;;
53903;SDS011;39812;52.430;16.936;2023-11-22T07:12:16;11.70;;;7.03;;
53903;SDS011;39812;52.430;16.936;2023-11-22T07:14:44;18.60;;;8.27;;
53903;SDS011;39812;52.430;16.936;2023-11-22T07:17:10;15.15;;;8.45;;
53903;SDS011;39812;52.430;16.936;2023-11-22T07:19:35;19.48;;;9.07;;
53903;SDS011;39812;52.430;16.936;2023-11-22T07:22:05;17.95;;;9.05;;
53903;SDS011;39812;52.430;16.936;2023-11-22T07:24:40;27.20;;;8.70;;
53903;SDS011;39812;52.430;16.936;2023-11-22T07:27:08;17.48;;;8.18;;
53903;SDS011;39812;52.430;16.936;2023-11-22T07:29:38;21.60;;;8.45;;
53903;SDS011;39812;52.430;16.936;2023-11-22T07:32:05;15.13;;;7.28;;
53903;SDS011;39812;52.430;16.936;2023-11-22T07:34:32;13.55;;;8.02;;
53903;SDS011;39812;52.430;16.936;2023-11-22T07:36:58;17.15;;;7.50;;
53903;SDS011;39812;52.430;16.936;2023-11-22T07:39:24;14.93;;;7.22;;
53903;SDS011;39812;52.430;16.936;2023-11-22T07:41:52;16.42;;;6.53;;
53903;SDS011;39812;52.430;16.936;2023-11-22T07:44:18;11.95;;;6.88;;
53903;SDS011;39812;52.430;16.936;2023-11-22T07:46:43;11.73;;;7.25;;
53903;SDS011;39812;52.430;16.936;2023-11-22T07:49:09;16.27;;;7.07;;
53903;SDS011;39812;52.430;16.936;2023-11-22T07:51:35;16.50;;;7.57;;
53903;SDS011;39812;52.430;16.936;2023-11-22T07:54:02;17.02;;;8.07;;
53903;SDS011;39812;52.430;16.936;2023-11-22T07:56:28;17.40;;;6.93;;
53903;SDS011;39812;52.430;16.936;2023-11-22T07:58:57;13.30;;;7.38;;
53903;SDS011;39812;52.430;16.936;2023-11-22T08:01:23;13.55;;;7.38;;
53903;SDS011;39812;52.430;16.936;2023-11-22T08:03:50;13.65;;;7.70;;
53903;SDS011;39812;52.430;16.936;2023-11-22T08:06:16;14.65;;;7.70;;
53903;SDS011;39812;52.430;16.936;2023-11-22T08:08:43;13.23;;;7.72;;
53903;SDS011;39812;52.430;16.936;2023-11-22T08:11:10;16.23;;;9.05;;
53903;SDS011;39812;52.430;16.936;2023-11-22T08:13:42;11.40;;;6.90;;
53903;SDS011;39812;52.430;16.936;2023-11-22T08:16:09;13.85;;;6.20;;
53903;SDS011;39812;52.430;16.936;2023-11-22T08:18:38;12.15;;;5.85;;
53903;SDS011;39812;52.430;16.936;2023-11-22T08:21:04;13.50;;;6.90;;
53903;SDS011;39812;52.430;16.936;2023-11-22T08:23:30;17.30;;;7.07;;
53903;SDS011;39812;52.430;16.936;2023-11-22T08:25:58;15.52;;;6.85;;
53903;SDS011;39812;52.430;16.936;2023-11-22T08:28:24;14.88;;;7.25;;
53903;SDS011;39812;52.430;16.936;2023-11-22T08:30:51;15.77;;;7.90;;
53903;SDS011;39812;52.430;16.936;2023-11-22T08:33:17;21.27;;;9.80;;
53903;SDS011;39812;52.430;16.936;2023-11-22T08:35:43;17.00;;;7.65;;
53903;SDS011;39812;52.430;16.936;2023-11-22T08:38:09;19.35;;;7.00;;
53903;SDS011;39812;52.430;16.936;2023-11-22T08:40:35;19.25;;;8.88;;
53903;SDS011;39812;52.430;16.936;2023-11-22T08:43:05;22.88;;;8.82;;
53903;SDS011;39812;52.430;16.936;2023-11-22T08:45:30;15.20;;;6.70;;
53903;SDS011;39812;52.430;16.936;2023-11-22T08:47:57;14.85;;;7.18;;
53903;SDS011;39812;52.430;16.936;2023-11-22T08:50:24;13.35;;;7.18;;
53903;SDS011;39812;52.430;16.936;2023-11-22T08:52:50;20.35;;;8.73;;
53903;SDS011;39812;52.430;16.936;2023-11-22T08:55:19;17.13;;;8.32;;
53903;SDS011;39812;52.430;16.936;2023-11-22T08:57:47;15.85;;;7.72;;
53903;SDS011;39812;52.430;16.936;2023-11-22T09:00:13;14.10;;;7.65;;
53903;SDS011;39812;52.430;16.936;2023-11-22T09:02:39;21.30;;;9.43;;
53903;SDS011;39812;52.430;16.936;2023-11-22T09:05:06;17.23;;;9.00;;
53903;SDS011;39812;52.430;16.936;2023-11-22T09:07:33;16.95;;;7.55;;
53903;SDS011;39812;52.430;16.936;2023-11-22T09:10:00;19.15;;;7.88;;
53903;SDS011;39812;52.430;16.936;2023-11-22T09:12:34;12.52;;;6.40;;
53903;SDS011;39812;52.430;16.936;2023-11-22T09:15:00;14.68;;;8.10;;
53903;SDS011;39812;52.430;16.936;2023-11-22T09:17:26;22.80;;;8.77;;
53903;SDS011;39812;52.430;16.936;2023-11-22T09:19:52;13.02;;;7.47;;
53903;SDS011;39812;52.430;16.936;2023-11-22T09:22:21;16.02;;;8.13;;
53903;SDS011;39812;52.430;16.936;2023-11-22T09:24:47;14.90;;;7.30;;
53903;SDS011;39812;52.430;16.936;2023-11-22T09:27:12;20.23;;;7.88;;
53903;SDS011;39812;52.430;16.936;2023-11-22T09:29:42;14.27;;;7.45;;
53903;SDS011;39812;52.430;16.936;2023-11-22T09:32:10;17.40;;;7.65;;
53903;SDS011;39812;52.430;16.936;2023-11-22T09:34:37;17.77;;;8.68;;
53903;SDS011;39812;52.430;16.936;2023-11-22T09:37:03;21.45;;;8.00;;
53903;SDS011;39812;52.430;16.936;2023-11-22T09:39:29;17.80;;;6.95;;
53903;SDS011;39812;52.430;16.936;2023-11-22T09:41:55;17.80;;;7.80;;
53903;SDS011;39812;52.430;16.936;2023-11-22T09:44:21;16.33;;;7.78;;
53903;SDS011;39812;52.430;16.936;2023-11-22T09:46:48;17.80;;;8.38;;
53903;SDS011;39812;52.430;16.936;2023-11-22T09:49:15;18.42;;;7.70;;
53903;SDS011;39812;52.430;16.936;2023-11-22T09:51:47;19.92;;;7.47;;
53903;SDS011;39812;52.430;16.936;2023-11-22T09:54:16;13.57;;;7.10;;
53903;SDS011;39812;52.430;16.936;2023-11-22T09:56:44;13.85;;;6.75;;
53903;SDS011;39812;52.430;16.936;2023-11-22T09:59:15;15.60;;;6.68;;
53903;SDS011;39812;52.430;16.936;2023-11-22T10:01:42;13.02;;;5.97;;
53903;SDS011;39812;52.430;16.936;2023-11-22T10:04:08;14.25;;;6.05;;
53903;SDS011;39812;52.430;16.936;2023-11-22T10:06:33;13.63;;;6.97;;
53903;SDS011;39812;52.430;16.936;2023-11-22T10:09:01;15.15;;;7.22;;
53903;SDS011;39812;52.430;16.936;2023-11-22T10:11:32;22.30;;;7.35;;
53903;SDS011;39812;52.430;16.936;2023-11-22T10:13:58;14.88;;;6.10;;
53903;SDS011;39812;52.430;16.936;2023-11-22T10:16:24;10.05;;;5.53;;
53903;SDS011;39812;52.430;16.936;2023-11-22T10:18:50;11.95;;;6.05;;
53903;SDS011;39812;52.430;16.936;2023-11-22T10:21:22;12.90;;;6.50;;
53903;SDS011;39812;52.430;16.936;2023-11-22T10:23:49;14.75;;;7.10;;
53903;SDS011;39812;52.430;16.936;2023-11-22T10:26:18;17.35;;;7.20;;
53903;SDS011;39812;52.430;16.936;2023-11-22T10:28:44;12.40;;;6.18;;
53903;SDS011;39812;52.430;16.936;2023-11-22T10:31:11;13.23;;;6.38;;
53903;SDS011;39812;52.430;16.936;2023-11-22T10:33:41;13.23;;;5.95;;
53903;SDS011;39812;52.430;16.936;2023-11-22T10:36:08;15.02;;;6.18;;
53903;SDS011;39812;52.430;16.936;2023-11-22T10:38:34;13.75;;;5.82;;
53903;SDS011;39812;52.430;16.936;2023-11-22T10:41:03;15.18;;;6.03;;
53903;SDS011;39812;52.430;16.936;2023-11-22T10:43:32;17.10;;;6.22;;
53903;SDS011;39812;52.430;16.936;2023-11-22T10:46:01;9.77;;;4.90;;
53903;SDS011;39812;52.430;16.936;2023-11-22T10:48:27;9.27;;;4.60;;
53903;SDS011;39812;52.430;16.936;2023-11-22T10:50:55;9.30;;;5.18;;
53903;SDS011;39812;52.430;16.936;2023-11-22T10:53:27;13.48;;;4.68;;
53903;SDS011;39812;52.430;16.936;2023-11-22T10:56:05;12.18;;;4.88;;
53903;SDS011;39812;52.430;16.936;2023-11-22T10:58:36;11.80;;;5.10;;
53903;SDS011;39812;52.430;16.936;2023-11-22T11:01:15;14.25;;;5.47;;
53903;SDS011;39812;52.430;16.936;2023-11-22T11:03:41;14.25;;;5.53;;
53903;SDS011;39812;52.430;16.936;2023-11-22T11:06:20;16.73;;;5.57;;
53903;SDS011;39812;52.430;16.936;2023-11-22T11:08:52;12.38;;;5.65;;
53903;SDS011;39812;52.430;16.936;2023-11-22T11:11:19;9.80;;;5.40;;
53903;SDS011;39812;52.430;16.936;2023-11-22T11:13:46;10.73;;;5.60;;
53903;SDS011;39812;52.430;16.936;2023-11-22T11:16:13;15.10;;;6.20;;
53903;SDS011;39812;52.430;16.936;2023-11-22T11:18:39;11.40;;;5.50;;
53903;SDS011;39812;52.430;16.936;2023-11-22T11:21:08;10.75;;;5.03;;
53903;SDS011;39812;52.430;16.936;2023-11-22T11:23:38;11.40;;;5.78;;
53903;SDS011;39812;52.430;16.936;2023-11-22T11:26:14;13.55;;;5.75;;
53903;SDS011;39812;52.430;16.936;2023-11-22T11:28:46;11.77;;;5.68;;
53903;SDS011;39812;52.430;16.936;2023-11-22T11:31:13;12.13;;;5.47;;
53903;SDS011;39812;52.430;16.936;2023-11-22T11:36:30;13.80;;;5.70;;
53903;SDS011;39812;52.430;16.936;2023-11-22T11:38:58;13.80;;;4.88;;
53903;SDS011;39812;52.430;16.936;2023-11-22T11:41:26;12.27;;;5.57;;
53903;SDS011;39812;52.430;16.936;2023-11-22T11:44:03;12.57;;;4.60;;
53903;SDS011;39812;52.430;16.936;2023-11-22T11:46:32;12.32;;;5.35;;
53903;SDS011;39812;52.430;16.936;2023-11-22T11:48:58;8.32;;;4.75;;
53903;SDS011;39812;52.430;16.936;2023-11-22T11:51:25;13.02;;;5.10;;
53903;SDS011;39812;52.430;16.936;2023-11-22T11:53:52;13.70;;;5.88;;
53903;SDS011;39812;52.430;16.936;2023-11-22T11:56:19;10.18;;;5.40;;
53903;SDS011;39812;52.430;16.936;2023-11-22T11:58:45;13.05;;;5.15;;
53903;SDS011;39812;52.430;16.936;2023-11-22T12:01:12;10.60;;;5.43;;
53903;SDS011;39812;52.430;16.936;2023-11-22T12:03:38;10.98;;;6.05;;
53903;SDS011;39812;52.430;16.936;2023-11-22T12:06:05;11.00;;;5.20;;
53903;SDS011;39812;52.430;16.936;2023-11-22T12:08:31;9.48;;;5.38;;
53903;SDS011;39812;52.430;16.936;2023-11-22T12:11:01;14.30;;;6.28;;
53903;SDS011;39812;52.430;16.936;2023-11-22T12:13:32;13.50;;;5.78;;
53903;SDS011;39812;52.430;16.936;2023-11-22T12:15:58;11.07;;;5.60;;
53903;SDS011;39812;52.430;16.936;2023-11-22T12:18:24;10.80;;;5.70;;
53903;SDS011;39812;52.430;16.936;2023-11-22T12:20:56;9.00;;;5.50;;
53903;SDS011;39812;52.430;16.936;2023-11-22T12:25:58;10.63;;;5.50;;
53903;SDS011;39812;52.430;16.936;2023-11-22T12:28:26;11.52;;;6.13;;
53903;SDS011;39812;52.430;16.936;2023-11-22T12:30:53;9.13;;;5.05;;
53903;SDS011;39812;52.430;16.936;2023-11-22T12:33:19;10.70;;;6.00;;
53903;SDS011;39812;52.430;16.936;2023-11-22T12:35:45;9.10;;;4.78;;
53903;SDS011;39812;52.430;16.936;2023-11-22T12:38:12;11.68;;;6.03;;
53903;SDS011;39812;52.430;16.936;2023-11-22T12:40:42;10.07;;;6.03;;
53903;SDS011;39812;52.430;16.936;2023-11-22T12:43:08;10.48;;;5.05;;
53903;SDS011;39812;52.430;16.936;2023-11-22T12:45:34;9.65;;;5.20;;
53903;SDS011;39812;52.430;16.936;2023-11-22T12:48:19;10.95;;;5.60;;
53903;SDS011;39812;52.430;16.936;2023-11-22T12:50:47;8.57;;;5.38;;
53903;SDS011;39812;52.430;16.936;2023-11-22T12:53:14;11.57;;;4.80;;
53903;SDS011;39812;52.430;16.936;2023-11-22T12:55:46;9.18;;;5.32;;
53903;SDS011;39812;52.430;16.936;2023-11-22T12:58:17;13.83;;;5.17;;
53903;SDS011;39812;52.430;16.936;2023-11-22T13:00:47;10.20;;;5.20;;
53903;SDS011;39812;52.430;16.936;2023-11-22T13:03:14;9.35;;;5.25;;
53903;SDS011;39812;52.430;16.936;2023-11-22T13:05:42;10.07;;;5.63;;
53903;SDS011;39812;52.430;16.936;2023-11-22T13:08:12;10.35;;;5.47;;
53903;SDS011;39812;52.430;16.936;2023-11-22T13:10:48;9.70;;;6.13;;
53903;SDS011;39812;52.430;16.936;2023-11-22T13:13:23;12.02;;;5.78;;
53903;SDS011;39812;52.430;16.936;2023-11-22T13:15:50;12.38;;;6.38;;
53903;SDS011;39812;52.430;16.936;2023-11-22T13:18:16;9.45;;;5.45;;
53903;SDS011;39812;52.430;16.936;2023-11-22T13:20:42;13.15;;;5.82;;
53903;SDS011;39812;52.430;16.936;2023-11-22T13:23:08;9.75;;;5.30;;
53903;SDS011;39812;52.430;16.936;2023-11-22T13:25:34;9.65;;;5.25;;
53903;SDS011;39812;52.430;16.936;2023-11-22T13:28:01;11.18;;;5.40;;
53903;SDS011;39812;52.430;16.936;2023-11-22T13:30:29;10.93;;;5.20;;
53903;SDS011;39812;52.430;16.936;2023-11-22T13:32:55;13.07;;;5.68;;
53903;SDS011;39812;52.430;16.936;2023-11-22T13:35:24;12.18;;;5.50;;
53903;SDS011;39812;52.430;16.936;2023-11-22T13:37:55;11.95;;;5.03;;
53903;SDS011;39812;52.430;16.936;2023-11-22T13:40:22;12.02;;;6.57;;
53903;SDS011;39812;52.430;16.936;2023-11-22T13:42:50;11.20;;;5.75;;
53903;SDS011;39812;52.430;16.936;2023-11-22T13:45:18;9.57;;;5.28;;
53903;SDS011;39812;52.430;16.936;2023-11-22T13:47:45;11.93;;;5.90;;
53903;SDS011;39812;52.430;16.936;2023-11-22T13:50:15;9.55;;;4.82;;
53903;SDS011;39812;52.430;16.936;2023-11-22T13:52:51;9.88;;;5.68;;
53903;SDS011;39812;52.430;16.936;2023-11-22T13:55:18;13.32;;;6.97;;
53903;SDS011;39812;52.430;16.936;2023-11-22T13:57:48;16.25;;;7.05;;
53903;SDS011;39812;52.430;16.936;2023-11-22T14:00:15;12.85;;;7.43;;
53903;SDS011;39812;52.430;16.936;2023-11-22T14:02:45;15.73;;;7.28;;
53903;SDS011;39812;52.430;16.936;2023-11-22T14:05:11;27.08;;;8.70;;
53903;SDS011;39812;52.430;16.936;2023-11-22T14:07:37;17.15;;;7.53;;
53903;SDS011;39812;52.430;16.936;2023-11-22T14:10:03;16.52;;;7.57;;
53903;SDS011;39812;52.430;16.936;2023-11-22T14:12:31;21.45;;;9.43;;
53903;SDS011;39812;52.430;16.936;2023-11-22T14:14:57;20.38;;;8.93;;
53903;SDS011;39812;52.430;16.936;2023-11-22T14:17:23;16.17;;;8.23;;
53903;SDS011;39812;52.430;16.936;2023-11-22T14:19:49;18.75;;;8.88;;
53903;SDS011;39812;52.430;16.936;2023-11-22T14:22:15;17.40;;;8.93;;
53903;SDS011;39812;52.430;16.936;2023-11-22T14:24:42;22.38;;;8.23;;
53903;SDS011;39812;52.430;16.936;2023-11-22T14:27:10;17.77;;;8.32;;
53903;SDS011;39812;52.430;16.936;2023-11-22T14:29:37;15.52;;;7.57;;